createdAt,value
2019-05-09T20:33:23.094Z,64.10
2019-05-09T20:35:54.375Z,63.10
2019-05-09T20:38:25.629Z,66.40
2019-05-09T20:40:57.076Z,59.63
2019-05-09T20:43:28.614Z,62.05
2019-05-09T20:46:00.037Z,61.65
2019-05-09T20:48:31.855Z,62.55
2019-05-09T20:51:03.076Z,72.12
2019-05-09T20:53:34.705Z,71.00
2019-05-09T20:56:07.277Z,65.57
2019-05-09T20:58:38.549Z,79.20
2019-05-09T21:01:09.834Z,61.53
2019-05-09T21:03:41.168Z,68.22
2019-05-09T21:06:12.724Z,68.22
2019-05-09T21:08:44.022Z,70.25
2019-05-09T21:11:15.232Z,65.05
2019-05-09T21:13:48.796Z,64.67
2019-05-09T21:16:19.686Z,55.95
2019-05-09T21:18:51.121Z,76.33
2019-05-09T21:21:22.707Z,72.65
2019-05-09T21:23:54.101Z,57.58
2019-05-09T21:26:25.329Z,66.33
2019-05-09T21:28:56.529Z,67.15
2019-05-09T21:31:27.951Z,67.83
2019-05-09T21:33:59.218Z,65.90
2019-05-09T21:36:30.439Z,78.22
2019-05-09T21:39:01.535Z,87.22
2019-05-09T21:41:32.702Z,81.90
2019-05-09T21:44:03.921Z,66.33
2019-05-09T21:46:35.215Z,73.30
2019-05-09T21:49:06.627Z,70.08
2019-05-09T21:51:37.743Z,78.45
2019-05-09T21:54:08.886Z,83.47
2019-05-09T21:56:39.947Z,76.00
2019-05-09T21:59:11.303Z,80.05
2019-05-09T22:01:42.725Z,94.83
2019-05-09T22:04:13.814Z,81.08
2019-05-09T22:06:44.983Z,75.03
2019-05-09T22:09:16.040Z,87.80
2019-05-09T22:11:47.321Z,84.92
2019-05-09T22:14:18.543Z,81.35
2019-05-09T22:16:49.877Z,80.00
2019-05-09T22:19:21.258Z,86.55
2019-05-09T22:21:52.260Z,78.85
2019-05-09T22:24:23.469Z,78.83
2019-05-09T22:26:54.989Z,85.95
2019-05-09T22:29:26.229Z,81.77
2019-05-09T22:31:57.777Z,90.53
2019-05-09T22:34:29.013Z,79.10
2019-05-09T22:37:00.378Z,81.22
2019-05-09T22:39:31.806Z,82.80
2019-05-09T22:42:03.215Z,93.82
2019-05-09T22:44:34.354Z,80.53
2019-05-09T22:47:05.837Z,85.67
2019-05-09T22:49:37.278Z,85.47
2019-05-09T22:52:08.283Z,89.60
2019-05-09T22:54:39.653Z,106.03
2019-05-09T22:57:10.793Z,92.62
2019-05-09T22:59:41.889Z,83.03
2019-05-09T23:02:12.964Z,86.73
2019-05-09T23:04:44.018Z,92.97
2019-05-09T23:07:15.136Z,91.78
2019-05-09T23:09:46.345Z,98.30
2019-05-09T23:12:17.385Z,97.33
2019-05-09T23:14:48.497Z,94.58
2019-05-09T23:17:19.977Z,101.60
2019-05-09T23:19:51.422Z,94.37
2019-05-09T23:22:24.430Z,89.30
2019-05-09T23:24:55.471Z,90.90
2019-05-09T23:27:26.632Z,84.23
2019-05-09T23:29:57.806Z,87.53
2019-05-09T23:32:30.815Z,91.90
2019-05-09T23:35:02.088Z,79.00
2019-05-09T23:37:33.217Z,80.47
2019-05-09T23:40:06.728Z,81.42
2019-05-09T23:42:37.972Z,82.67
2019-05-09T23:45:09.523Z,81.43
2019-05-09T23:47:40.519Z,79.00
2019-05-09T23:50:11.590Z,74.50
2019-05-09T23:52:43.288Z,68.02
2019-05-09T23:55:32.287Z,75.30
2019-05-09T23:58:21.155Z,73.67
